sensor_id;sensor_type;location;lat;lon;timestamp;P1;durP1;ratioP1;P2;durP2;ratioP2
71174;SDS011;58876;51.994;4.472;2022-08-19T00:01:32;1619.36;;;1619.36;;
71174;SDS011;58876;51.994;4.472;2022-08-19T00:04:01;1623.55;;;1623.55;;
71174;SDS011;58876;51.994;4.472;2022-08-19T00:06:29;1777.85;;;1777.85;;
71174;SDS011;58876;51.994;4.472;2022-08-19T00:08:55;1885.31;;;1885.31;;
71174;SDS011;58876;51.994;4.472;2022-08-19T00:11:22;1959.99;;;1959.99;;
71174;SDS011;58876;51.994;4.472;2022-08-19T00:13:49;2005.83;;;2005.83;;
71174;SDS011;58876;51.994;4.472;2022-08-19T00:16:15;2025.69;;;2025.69;;
71174;SDS011;58876;51.994;4.472;2022-08-19T00:18:45;2012.80;;;2012.80;;
71174;SDS011;58876;51.994;4.472;2022-08-19T00:21:12;2119.12;;;2119.12;;
71174;SDS011;58876;51.994;4.472;2022-08-19T00:23:38;2219.19;;;2219.19;;
71174;SDS011;58876;51.994;4.472;2022-08-19T00:26:04;1951.35;;;1951.35;;
71174;SDS011;58876;51.994;4.472;2022-08-19T00:28:30;1702.72;;;1702.72;;
71174;SDS011;58876;51.994;4.472;2022-08-19T00:30:55;1284.23;;;1284.23;;
71174;SDS011;58876;51.994;4.472;2022-08-19T00:33:21;292.31;;;292.31;;
71174;SDS011;58876;51.994;4.472;2022-08-19T00:35:47;370.06;;;370.06;;
71174;SDS011;58876;51.994;4.472;2022-08-19T00:38:12;539.76;;;539.76;;
71174;SDS011;58876;51.994;4.472;2022-08-19T00:40:37;798.63;;;798.63;;
71174;SDS011;58876;51.994;4.472;2022-08-19T00:43:10;931.70;;;931.70;;
71174;SDS011;58876;51.994;4.472;2022-08-19T00:45:38;1072.82;;;1072.82;;
71174;SDS011;58876;51.994;4.472;2022-08-19T00:48:08;1120.07;;;1120.07;;
71174;SDS011;58876;51.994;4.472;2022-08-19T00:50:35;1033.71;;;1033.71;;
71174;SDS011;58876;51.994;4.472;2022-08-19T00:53:01;1055.43;;;1055.43;;
71174;SDS011;58876;51.994;4.472;2022-08-19T00:55:28;1045.08;;;1045.08;;
71174;SDS011;58876;51.994;4.472;2022-08-19T00:58:01;985.12;;;985.12;;
71174;SDS011;58876;51.994;4.472;2022-08-19T01:00:32;1044.09;;;1044.09;;
71174;SDS011;58876;51.994;4.472;2022-08-19T01:03:02;943.85;;;943.85;;
71174;SDS011;58876;51.994;4.472;2022-08-19T01:05:32;916.58;;;916.58;;
71174;SDS011;58876;51.994;4.472;2022-08-19T01:07:59;917.47;;;917.47;;
71174;SDS011;58876;51.994;4.472;2022-08-19T01:10:29;938.24;;;938.24;;
71174;SDS011;58876;51.994;4.472;2022-08-19T01:12:58;963.24;;;963.24;;
71174;SDS011;58876;51.994;4.472;2022-08-19T01:15:26;873.51;;;873.51;;
71174;SDS011;58876;51.994;4.472;2022-08-19T01:17:56;740.92;;;740.92;;
71174;SDS011;58876;51.994;4.472;2022-08-19T01:20:29;704.80;;;704.80;;
71174;SDS011;58876;51.994;4.472;2022-08-19T01:22:57;705.64;;;705.64;;
71174;SDS011;58876;51.994;4.472;2022-08-19T01:25:28;606.89;;;606.89;;
71174;SDS011;58876;51.994;4.472;2022-08-19T01:28:24;700.01;;;700.01;;
71174;SDS011;58876;51.994;4.472;2022-08-19T01:30:52;691.74;;;691.74;;
71174;SDS011;58876;51.994;4.472;2022-08-19T01:33:20;659.75;;;659.75;;
71174;SDS011;58876;51.994;4.472;2022-08-19T01:35:46;608.92;;;608.92;;
71174;SDS011;58876;51.994;4.472;2022-08-19T01:38:19;646.75;;;646.75;;
71174;SDS011;58876;51.994;4.472;2022-08-19T01:40:48;743.10;;;743.10;;
71174;SDS011;58876;51.994;4.472;2022-08-19T01:43:13;849.55;;;849.55;;
71174;SDS011;58876;51.994;4.472;2022-08-19T01:45:40;847.22;;;847.22;;
71174;SDS011;58876;51.994;4.472;2022-08-19T01:48:06;971.58;;;971.58;;
71174;SDS011;58876;51.994;4.472;2022-08-19T01:50:32;994.98;;;994.98;;
71174;SDS011;58876;51.994;4.472;2022-08-19T01:53:00;1102.71;;;1102.71;;
71174;SDS011;58876;51.994;4.472;2022-08-19T01:55:26;1060.09;;;1060.09;;
71174;SDS011;58876;51.994;4.472;2022-08-19T01:57:53;1274.05;;;1274.05;;
71174;SDS011;58876;51.994;4.472;2022-08-19T02:00:23;1019.61;;;1019.61;;
71174;SDS011;58876;51.994;4.472;2022-08-19T02:02:51;1196.09;;;1196.09;;
71174;SDS011;58876;51.994;4.472;2022-08-19T02:05:16;1301.06;;;1301.06;;
71174;SDS011;58876;51.994;4.472;2022-08-19T02:07:43;1233.56;;;1233.56;;
71174;SDS011;58876;51.994;4.472;2022-08-19T02:10:11;1312.66;;;1312.66;;
71174;SDS011;58876;51.994;4.472;2022-08-19T02:12:42;1415.44;;;1415.44;;
71174;SDS011;58876;51.994;4.472;2022-08-19T02:15:08;1522.35;;;1522.35;;
71174;SDS011;58876;51.994;4.472;2022-08-19T02:17:34;1623.66;;;1623.66;;
71174;SDS011;58876;51.994;4.472;2022-08-19T02:20:00;1656.63;;;1656.63;;
71174;SDS011;58876;51.994;4.472;2022-08-19T02:22:26;1587.98;;;1587.98;;
71174;SDS011;58876;51.994;4.472;2022-08-19T02:24:52;1609.95;;;1609.95;;
71174;SDS011;58876;51.994;4.472;2022-08-19T02:27:18;1701.50;;;1701.50;;
71174;SDS011;58876;51.994;4.472;2022-08-19T02:29:45;1702.42;;;1702.42;;
71174;SDS011;58876;51.994;4.472;2022-08-19T02:32:15;1494.35;;;1494.35;;
71174;SDS011;58876;51.994;4.472;2022-08-19T02:34:41;1332.90;;;1332.90;;
71174;SDS011;58876;51.994;4.472;2022-08-19T02:37:06;1217.31;;;1217.31;;
71174;SDS011;58876;51.994;4.472;2022-08-19T02:39:52;1222.21;;;1222.21;;
71174;SDS011;58876;51.994;4.472;2022-08-19T02:42:18;1265.09;;;1265.09;;
71174;SDS011;58876;51.994;4.472;2022-08-19T02:44:43;1172.38;;;1172.38;;
71174;SDS011;58876;51.994;4.472;2022-08-19T02:47:09;1164.39;;;1164.39;;
71174;SDS011;58876;51.994;4.472;2022-08-19T02:49:35;1219.55;;;1219.55;;
71174;SDS011;58876;51.994;4.472;2022-08-19T02:52:01;1161.41;;;1161.41;;
71174;SDS011;58876;51.994;4.472;2022-08-19T02:54:27;1179.57;;;1179.57;;
71174;SDS011;58876;51.994;4.472;2022-08-19T02:56:53;1143.52;;;1143.52;;
71174;SDS011;58876;51.994;4.472;2022-08-19T02:59:18;1119.13;;;1119.13;;
71174;SDS011;58876;51.994;4.472;2022-08-19T03:01:43;1103.33;;;1103.33;;
71174;SDS011;58876;51.994;4.472;2022-08-19T03:04:12;1098.78;;;1098.78;;
71174;SDS011;58876;51.994;4.472;2022-08-19T03:06:40;1139.65;;;1139.65;;
71174;SDS011;58876;51.994;4.472;2022-08-19T03:09:08;1192.18;;;1192.18;;
71174;SDS011;58876;51.994;4.472;2022-08-19T03:11:35;1048.16;;;1048.16;;
71174;SDS011;58876;51.994;4.472;2022-08-19T03:14:00;1043.77;;;1043.77;;
71174;SDS011;58876;51.994;4.472;2022-08-19T03:16:28;1060.26;;;1060.26;;
71174;SDS011;58876;51.994;4.472;2022-08-19T03:18:56;1100.87;;;1100.87;;
71174;SDS011;58876;51.994;4.472;2022-08-19T03:21:25;1120.32;;;1120.32;;
71174;SDS011;58876;51.994;4.472;2022-08-19T03:23:56;1139.93;;;1139.93;;
71174;SDS011;58876;51.994;4.472;2022-08-19T03:26:25;1089.33;;;1089.33;;
71174;SDS011;58876;51.994;4.472;2022-08-19T03:28:51;1036.59;;;1036.59;;
71174;SDS011;58876;51.994;4.472;2022-08-19T03:31:20;1071.81;;;1071.81;;
71174;SDS011;58876;51.994;4.472;2022-08-19T03:33:50;1099.41;;;1099.41;;
71174;SDS011;58876;51.994;4.472;2022-08-19T03:36:18;1115.90;;;1115.90;;
71174;SDS011;58876;51.994;4.472;2022-08-19T03:38:49;1031.59;;;1031.59;;
71174;SDS011;58876;51.994;4.472;2022-08-19T03:41:18;1058.40;;;1058.40;;
71174;SDS011;58876;51.994;4.472;2022-08-19T03:43:46;1057.66;;;1057.66;;
71174;SDS011;58876;51.994;4.472;2022-08-19T03:46:13;1028.17;;;1028.17;;
71174;SDS011;58876;51.994;4.472;2022-08-19T03:48:41;1014.44;;;1014.44;;
71174;SDS011;58876;51.994;4.472;2022-08-19T03:51:08;1043.01;;;1043.01;;
71174;SDS011;58876;51.994;4.472;2022-08-19T03:53:41;1056.61;;;1056.61;;
71174;SDS011;58876;51.994;4.472;2022-08-19T03:56:08;1055.80;;;1055.80;;
71174;SDS011;58876;51.994;4.472;2022-08-19T03:58:34;1059.69;;;1059.69;;
71174;SDS011;58876;51.994;4.472;2022-08-19T04:01:02;1034.80;;;1034.80;;
71174;SDS011;58876;51.994;4.472;2022-08-19T04:03:38;1018.92;;;1018.92;;
71174;SDS011;58876;51.994;4.472;2022-08-19T04:06:22;1122.23;;;1122.23;;
71174;SDS011;58876;51.994;4.472;2022-08-19T04:08:49;1291.83;;;1291.83;;
71174;SDS011;58876;51.994;4.472;2022-08-19T04:11:21;1433.81;;;1433.81;;
71174;SDS011;58876;51.994;4.472;2022-08-19T04:13:51;1601.41;;;1601.41;;
71174;SDS011;58876;51.994;4.472;2022-08-19T04:16:19;1623.80;;;1623.80;;
71174;SDS011;58876;51.994;4.472;2022-08-19T04:18:49;1810.95;;;1810.95;;
71174;SDS011;58876;51.994;4.472;2022-08-19T04:21:24;1796.17;;;1796.17;;
71174;SDS011;58876;51.994;4.472;2022-08-19T04:23:51;1822.77;;;1822.77;;
71174;SDS011;58876;51.994;4.472;2022-08-19T04:26:23;1710.85;;;1710.85;;
71174;SDS011;58876;51.994;4.472;2022-08-19T04:28:51;1561.35;;;1561.35;;
71174;SDS011;58876;51.994;4.472;2022-08-19T04:31:19;1652.68;;;1652.68;;
71174;SDS011;58876;51.994;4.472;2022-08-19T04:33:48;1608.33;;;1608.33;;
71174;SDS011;58876;51.994;4.472;2022-08-19T04:36:20;1514.82;;;1514.82;;
71174;SDS011;58876;51.994;4.472;2022-08-19T04:38:49;1389.10;;;1389.10;;
71174;SDS011;58876;51.994;4.472;2022-08-19T04:41:20;1209.53;;;1209.53;;
71174;SDS011;58876;51.994;4.472;2022-08-19T04:44:04;1243.16;;;1243.16;;
71174;SDS011;58876;51.994;4.472;2022-08-19T04:46:30;1290.92;;;1290.92;;
71174;SDS011;58876;51.994;4.472;2022-08-19T04:48:57;1274.98;;;1274.98;;
71174;SDS011;58876;51.994;4.472;2022-08-19T04:51:27;1229.24;;;1229.24;;
71174;SDS011;58876;51.994;4.472;2022-08-19T04:53:53;1239.48;;;1239.48;;
71174;SDS011;58876;51.994;4.472;2022-08-19T04:56:19;1238.15;;;1238.15;;
71174;SDS011;58876;51.994;4.472;2022-08-19T04:58:51;1279.35;;;1279.35;;
71174;SDS011;58876;51.994;4.472;2022-08-19T05:01:18;1223.63;;;1223.63;;
71174;SDS011;58876;51.994;4.472;2022-08-19T05:03:46;1204.07;;;1204.07;;
71174;SDS011;58876;51.994;4.472;2022-08-19T05:06:13;1268.90;;;1268.90;;
71174;SDS011;58876;51.994;4.472;2022-08-19T05:08:41;1349.69;;;1349.69;;
71174;SDS011;58876;51.994;4.472;2022-08-19T05:11:27;1256.08;;;1256.08;;
71174;SDS011;58876;51.994;4.472;2022-08-19T05:13:55;1100.46;;;1100.46;;
71174;SDS011;58876;51.994;4.472;2022-08-19T05:16:22;1075.04;;;1075.04;;
71174;SDS011;58876;51.994;4.472;2022-08-19T05:18:50;1079.38;;;1079.38;;
71174;SDS011;58876;51.994;4.472;2022-08-19T05:21:35;1001.12;;;1001.12;;
71174;SDS011;58876;51.994;4.472;2022-08-19T05:24:20;911.05;;;911.05;;
71174;SDS011;58876;51.994;4.472;2022-08-19T05:26:48;918.78;;;918.78;;
71174;SDS011;58876;51.994;4.472;2022-08-19T05:29:17;934.21;;;934.21;;
71174;SDS011;58876;51.994;4.472;2022-08-19T05:31:47;918.07;;;918.07;;
71174;SDS011;58876;51.994;4.472;2022-08-19T05:34:15;846.75;;;846.75;;
71174;SDS011;58876;51.994;4.472;2022-08-19T05:36:42;777.98;;;777.98;;
71174;SDS011;58876;51.994;4.472;2022-08-19T05:39:11;737.87;;;737.87;;
71174;SDS011;58876;51.994;4.472;2022-08-19T05:41:48;755.57;;;755.57;;
71174;SDS011;58876;51.994;4.472;2022-08-19T05:44:17;664.20;;;664.20;;
71174;SDS011;58876;51.994;4.472;2022-08-19T05:46:45;677.05;;;677.05;;
71174;SDS011;58876;51.994;4.472;2022-08-19T05:49:14;677.98;;;677.98;;
71174;SDS011;58876;51.994;4.472;2022-08-19T05:51:41;685.70;;;685.70;;
71174;SDS011;58876;51.994;4.472;2022-08-19T05:54:06;694.27;;;694.27;;
71174;SDS011;58876;51.994;4.472;2022-08-19T05:56:33;724.71;;;724.71;;
71174;SDS011;58876;51.994;4.472;2022-08-19T05:59:03;784.61;;;784.61;;
71174;SDS011;58876;51.994;4.472;2022-08-19T06:01:36;757.34;;;757.34;;
71174;SDS011;58876;51.994;4.472;2022-08-19T06:04:03;710.98;;;710.98;;
71174;SDS011;58876;51.994;4.472;2022-08-19T06:06:29;741.10;;;741.10;;
71174;SDS011;58876;51.994;4.472;2022-08-19T06:08:54;735.18;;;735.18;;
71174;SDS011;58876;51.994;4.472;2022-08-19T06:11:21;661.15;;;661.15;;
71174;SDS011;58876;51.994;4.472;2022-08-19T06:14:00;722.48;;;722.48;;
71174;SDS011;58876;51.994;4.472;2022-08-19T06:16:28;652.35;;;652.35;;
71174;SDS011;58876;51.994;4.472;2022-08-19T06:18:57;602.49;;;602.49;;
71174;SDS011;58876;51.994;4.472;2022-08-19T06:21:27;618.13;;;618.13;;
71174;SDS011;58876;51.994;4.472;2022-08-19T06:23:54;725.59;;;725.59;;
71174;SDS011;58876;51.994;4.472;2022-08-19T06:26:21;739.47;;;739.47;;
71174;SDS011;58876;51.994;4.472;2022-08-19T06:28:49;631.03;;;631.03;;
71174;SDS011;58876;51.994;4.472;2022-08-19T06:31:16;626.86;;;626.86;;
71174;SDS011;58876;51.994;4.472;2022-08-19T06:33:45;573.34;;;573.34;;
71174;SDS011;58876;51.994;4.472;2022-08-19T06:36:22;652.90;;;652.90;;
71174;SDS011;58876;51.994;4.472;2022-08-19T06:38:54;607.14;;;607.14;;
71174;SDS011;58876;51.994;4.472;2022-08-19T06:41:20;596.01;;;596.01;;
71174;SDS011;58876;51.994;4.472;2022-08-19T06:43:46;595.66;;;595.66;;
71174;SDS011;58876;51.994;4.472;2022-08-19T06:46:13;667.00;;;667.00;;
71174;SDS011;58876;51.994;4.472;2022-08-19T06:48:41;775.92;;;775.92;;
71174;SDS011;58876;51.994;4.472;2022-08-19T06:51:07;630.45;;;630.45;;
71174;SDS011;58876;51.994;4.472;2022-08-19T06:53:33;594.59;;;594.59;;
71174;SDS011;58876;51.994;4.472;2022-08-19T06:55:59;616.78;;;616.78;;
71174;SDS011;58876;51.994;4.472;2022-08-19T06:58:30;629.59;;;629.59;;
71174;SDS011;58876;51.994;4.472;2022-08-19T07:01:01;626.23;;;626.23;;
71174;SDS011;58876;51.994;4.472;2022-08-19T07:03:29;614.40;;;614.40;;
71174;SDS011;58876;51.994;4.472;2022-08-19T07:05:57;653.30;;;653.30;;
71174;SDS011;58876;51.994;4.472;2022-08-19T07:08:27;751.16;;;751.16;;
71174;SDS011;58876;51.994;4.472;2022-08-19T07:10:52;854.22;;;854.22;;
71174;SDS011;58876;51.994;4.472;2022-08-19T07:13:18;906.75;;;906.75;;
71174;SDS011;58876;51.994;4.472;2022-08-19T07:15:44;967.14;;;967.14;;
71174;SDS011;58876;51.994;4.472;2022-08-19T07:18:11;1070.59;;;1070.59;;
71174;SDS011;58876;51.994;4.472;2022-08-19T07:20:37;5288.35;;;5288.35;;
71174;SDS011;58876;51.994;4.472;2022-08-19T07:23:05;5077.56;;;5077.56;;
71174;SDS011;58876;51.994;4.472;2022-08-19T07:25:31;2573.65;;;2573.65;;
71174;SDS011;58876;51.994;4.472;2022-08-19T07:27:57;1725.72;;;1725.72;;
71174;SDS011;58876;51.994;4.472;2022-08-19T07:30:22;890.21;;;890.21;;
71174;SDS011;58876;51.994;4.472;2022-08-19T07:32:49;721.11;;;721.11;;
71174;SDS011;58876;51.994;4.472;2022-08-19T07:35:16;831.65;;;831.65;;
71174;SDS011;58876;51.994;4.472;2022-08-19T07:37:44;910.36;;;910.36;;
71174;SDS011;58876;51.994;4.472;2022-08-19T07:40:10;842.62;;;842.62;;
71174;SDS011;58876;51.994;4.472;2022-08-19T07:42:37;1068.43;;;1068.43;;
71174;SDS011;58876;51.994;4.472;2022-08-19T07:45:03;1117.81;;;1117.81;;
71174;SDS011;58876;51.994;4.472;2022-08-19T07:47:30;1625.82;;;1625.82;;
71174;SDS011;58876;51.994;4.472;2022-08-19T07:49:56;2158.48;;;2158.48;;
71174;SDS011;58876;51.994;4.472;2022-08-19T07:52:21;954.32;;;954.32;;
71174;SDS011;58876;51.994;4.472;2022-08-19T07:54:47;959.23;;;959.23;;
71174;SDS011;58876;51.994;4.472;2022-08-19T07:57:12;941.32;;;941.32;;
71174;SDS011;58876;51.994;4.472;2022-08-19T07:59:38;2446.57;;;2446.57;;
71174;SDS011;58876;51.994;4.472;2022-08-19T08:02:04;5585.32;;;5585.32;;
71174;SDS011;58876;51.994;4.472;2022-08-19T08:04:30;1683.01;;;1683.01;;
71174;SDS011;58876;51.994;4.472;2022-08-19T08:07:16;1371.34;;;1371.34;;
71174;SDS011;58876;51.994;4.472;2022-08-19T08:10:00;1013.79;;;1013.79;;
71174;SDS011;58876;51.994;4.472;2022-08-19T08:12:27;1065.00;;;1065.00;;
71174;SDS011;58876;51.994;4.472;2022-08-19T08:14:57;1733.26;;;1733.26;;
71174;SDS011;58876;51.994;4.472;2022-08-19T08:17:27;1418.43;;;1418.43;;
71174;SDS011;58876;51.994;4.472;2022-08-19T08:19:54;953.80;;;953.80;;
71174;SDS011;58876;51.994;4.472;2022-08-19T08:22:21;789.74;;;789.74;;
71174;SDS011;58876;51.994;4.472;2022-08-19T08:25:11;738.43;;;738.43;;
71174;SDS011;58876;51.994;4.472;2022-08-19T08:27:43;796.32;;;796.32;;
71174;SDS011;58876;51.994;4.472;2022-08-19T08:30:15;724.93;;;724.93;;
71174;SDS011;58876;51.994;4.472;2022-08-19T08:32:43;767.73;;;767.73;;
71174;SDS011;58876;51.994;4.472;2022-08-19T08:35:10;665.76;;;665.76;;
71174;SDS011;58876;51.994;4.472;2022-08-19T08:37:39;729.83;;;729.83;;
71174;SDS011;58876;51.994;4.472;2022-08-19T08:40:05;964.49;;;964.49;;
71174;SDS011;58876;51.994;4.472;2022-08-19T08:45:47;421.41;;;421.41;;
71174;SDS011;58876;51.994;4.472;2022-08-19T08:48:37;387.43;;;387.43;;
71174;SDS011;58876;51.994;4.472;2022-08-19T08:51:15;934.75;;;934.75;;
71174;SDS011;58876;51.994;4.472;2022-08-19T08:53:48;913.90;;;913.90;;
71174;SDS011;58876;51.994;4.472;2022-08-19T08:56:16;757.78;;;757.78;;
71174;SDS011;58876;51.994;4.472;2022-08-19T09:01:16;356.84;;;356.84;;
71174;SDS011;58876;51.994;4.472;2022-08-19T09:03:42;263.86;;;263.86;;
71174;SDS011;58876;51.994;4.472;2022-08-19T09:17:03;354.19;;;354.19;;
71174;SDS011;58876;51.994;4.472;2022-08-19T09:19:33;211.16;;;211.16;;
71174;SDS011;58876;51.994;4.472;2022-08-19T09:22:00;456.72;;;456.72;;
71174;SDS011;58876;51.994;4.472;2022-08-19T09:24:26;690.45;;;690.45;;
71174;SDS011;58876;51.994;4.472;2022-08-19T09:26:51;238.00;;;238.00;;
71174;SDS011;58876;51.994;4.472;2022-08-19T09:29:17;268.34;;;268.34;;
71174;SDS011;58876;51.994;4.472;2022-08-19T09:31:42;265.43;;;265.43;;
71174;SDS011;58876;51.994;4.472;2022-08-19T09:34:08;316.06;;;316.06;;
71174;SDS011;58876;51.994;4.472;2022-08-19T09:36:33;387.97;;;387.97;;
71174;SDS011;58876;51.994;4.472;2022-08-19T09:39:02;354.28;;;354.28;;
71174;SDS011;58876;51.994;4.472;2022-08-19T09:41:29;423.53;;;423.53;;
71174;SDS011;58876;51.994;4.472;2022-08-19T09:43:56;510.68;;;510.68;;
71174;SDS011;58876;51.994;4.472;2022-08-19T09:46:24;569.55;;;569.55;;
71174;SDS011;58876;51.994;4.472;2022-08-19T09:48:52;401.65;;;401.65;;
71174;SDS011;58876;51.994;4.472;2022-08-19T09:51:20;366.08;;;366.08;;
71174;SDS011;58876;51.994;4.472;2022-08-19T09:53:49;348.73;;;348.73;;
71174;SDS011;58876;51.994;4.472;2022-08-19T09:56:17;372.73;;;372.73;;
71174;SDS011;58876;51.994;4.472;2022-08-19T09:58:43;354.98;;;354.98;;
71174;SDS011;58876;51.994;4.472;2022-08-19T10:01:14;298.60;;;298.60;;
71174;SDS011;58876;51.994;4.472;2022-08-19T10:03:41;278.91;;;278.91;;
71174;SDS011;58876;51.994;4.472;2022-08-19T10:06:07;248.55;;;248.55;;
71174;SDS011;58876;51.994;4.472;2022-08-19T10:08:34;271.80;;;271.80;;
71174;SDS011;58876;51.994;4.472;2022-08-19T10:11:02;267.81;;;267.81;;
71174;SDS011;58876;51.994;4.472;2022-08-19T10:13:30;501.44;;;501.44;;
71174;SDS011;58876;51.994;4.472;2022-08-19T10:16:02;432.33;;;432.33;;
71174;SDS011;58876;51.994;4.472;2022-08-19T10:18:33;222.84;;;222.84;;
71174;SDS011;58876;51.994;4.472;2022-08-19T10:21:05;172.18;;;172.18;;
71174;SDS011;58876;51.994;4.472;2022-08-19T10:23:42;183.46;;;183.46;;
71174;SDS011;58876;51.994;4.472;2022-08-19T10:26:10;221.23;;;221.23;;
71174;SDS011;58876;51.994;4.472;2022-08-19T10:28:38;268.73;;;268.73;;
71174;SDS011;58876;51.994;4.472;2022-08-19T10:31:08;989.44;;;989.44;;
71174;SDS011;58876;51.994;4.472;2022-08-19T10:33:37;668.33;;;668.33;;
71174;SDS011;58876;51.994;4.472;2022-08-19T10:36:05;536.46;;;536.46;;
71174;SDS011;58876;51.994;4.472;2022-08-19T10:38:34;354.81;;;354.81;;
71174;SDS011;58876;51.994;4.472;2022-08-19T10:41:07;630.03;;;630.03;;
71174;SDS011;58876;51.994;4.472;2022-08-19T10:43:39;489.18;;;489.18;;
71174;SDS011;58876;51.994;4.472;2022-08-19T10:46:06;263.27;;;263.27;;
71174;SDS011;58876;51.994;4.472;2022-08-19T10:48:32;609.15;;;609.15;;
71174;SDS011;58876;51.994;4.472;2022-08-19T10:50:58;887.39;;;887.39;;
71174;SDS011;58876;51.994;4.472;2022-08-19T10:53:43;441.68;;;441.68;;
71174;SDS011;58876;51.994;4.472;2022-08-19T10:56:09;280.79;;;280.79;;
71174;SDS011;58876;51.994;4.472;2022-08-19T10:58:52;468.22;;;468.22;;
71174;SDS011;58876;51.994;4.472;2022-08-19T11:01:18;458.97;;;458.97;;
71174;SDS011;58876;51.994;4.472;2022-08-19T11:03:43;349.80;;;349.80;;
71174;SDS011;58876;51.994;4.472;2022-08-19T11:06:10;597.79;;;597.79;;
71174;SDS011;58876;51.994;4.472;2022-08-19T11:08:36;444.48;;;444.48;;
71174;SDS011;58876;51.994;4.472;2022-08-19T11:11:04;216.76;;;216.76;;
71174;SDS011;58876;51.994;4.472;2022-08-19T11:13:34;272.61;;;272.61;;
71174;SDS011;58876;51.994;4.472;2022-08-19T11:18:27;600.57;;;600.57;;
71174;SDS011;58876;51.994;4.472;2022-08-19T11:20:53;500.59;;;500.59;;
71174;SDS011;58876;51.994;4.472;2022-08-19T11:23:19;438.10;;;438.10;;
71174;SDS011;58876;51.994;4.472;2022-08-19T11:25:45;472.82;;;472.82;;
71174;SDS011;58876;51.994;4.472;2022-08-19T11:28:11;842.06;;;842.06;;
71174;SDS011;58876;51.994;4.472;2022-08-19T11:30:38;475.61;;;475.61;;
71174;SDS011;58876;51.994;4.472;2022-08-19T11:33:05;600.78;;;600.78;;
71174;SDS011;58876;51.994;4.472;2022-08-19T11:35:30;770.26;;;770.26;;
71174;SDS011;58876;51.994;4.472;2022-08-19T11:37:57;342.25;;;342.25;;
71174;SDS011;58876;51.994;4.472;2022-08-19T11:40:26;163.07;;;163.07;;
71174;SDS011;58876;51.994;4.472;2022-08-19T11:42:51;137.93;;;137.93;;
71174;SDS011;58876;51.994;4.472;2022-08-19T11:45:20;143.87;;;143.87;;
71174;SDS011;58876;51.994;4.472;2022-08-19T11:47:46;120.24;;;120.24;;
71174;SDS011;58876;51.994;4.472;2022-08-19T11:50:12;122.59;;;122.59;;
71174;SDS011;58876;51.994;4.472;2022-08-19T11:52:40;125.14;;;125.14;;
71174;SDS011;58876;51.994;4.472;2022-08-19T11:55:05;153.90;;;153.90;;
71174;SDS011;58876;51.994;4.472;2022-08-19T11:57:31;145.14;;;145.14;;
71174;SDS011;58876;51.994;4.472;2022-08-19T11:59:57;115.94;;;115.94;;
71174;SDS011;58876;51.994;4.472;2022-08-19T12:02:22;67.17;;;67.17;;
71174;SDS011;58876;51.994;4.472;2022-08-19T12:04:48;66.46;;;66.46;;
71174;SDS011;58876;51.994;4.472;2022-08-19T12:07:14;68.48;;;68.48;;
71174;SDS011;58876;51.994;4.472;2022-08-19T12:09:39;64.77;;;64.77;;
71174;SDS011;58876;51.994;4.472;2022-08-19T12:12:05;87.82;;;87.82;;
71174;SDS011;58876;51.994;4.472;2022-08-19T12:14:31;68.04;;;68.04;;
71174;SDS011;58876;51.994;4.472;2022-08-19T12:16:57;56.84;;;56.84;;
71174;SDS011;58876;51.994;4.472;2022-08-19T12:19:23;80.95;;;80.95;;
71174;SDS011;58876;51.994;4.472;2022-08-19T12:24:20;76.00;;;76.00;;
71174;SDS011;58876;51.994;4.472;2022-08-19T12:26:48;64.19;;;64.19;;
71174;SDS011;58876;51.994;4.472;2022-08-19T12:29:14;64.47;;;64.47;;
71174;SDS011;58876;51.994;4.472;2022-08-19T12:31:39;61.59;;;61.59;;
71174;SDS011;58876;51.994;4.472;2022-08-19T12:34:05;83.42;;;83.42;;
71174;SDS011;58876;51.994;4.472;2022-08-19T12:36:31;151.46;;;151.46;;
71174;SDS011;58876;51.994;4.472;2022-08-19T12:38:57;62.97;;;62.97;;
71174;SDS011;58876;51.994;4.472;2022-08-19T12:41:23;86.46;;;86.46;;
71174;SDS011;58876;51.994;4.472;2022-08-19T12:43:49;81.56;;;81.56;;
71174;SDS011;58876;51.994;4.472;2022-08-19T12:46:15;58.39;;;58.39;;
71174;SDS011;58876;51.994;4.472;2022-08-19T12:48:42;73.08;;;73.08;;
71174;SDS011;58876;51.994;4.472;2022-08-19T12:51:09;86.61;;;86.61;;
71174;SDS011;58876;51.994;4.472;2022-08-19T12:53:38;53.69;;;53.69;;
71174;SDS011;58876;51.994;4.472;2022-08-19T12:56:05;62.20;;;62.20;;
71174;SDS011;58876;51.994;4.472;2022-08-19T12:58:31;70.20;;;70.20;;
71174;SDS011;58876;51.994;4.472;2022-08-19T13:00:59;83.48;;;83.48;;
71174;SDS011;58876;51.994;4.472;2022-08-19T13:03:31;62.28;;;62.28;;
71174;SDS011;58876;51.994;4.472;2022-08-19T13:05:56;53.38;;;53.38;;
71174;SDS011;58876;51.994;4.472;2022-08-19T13:08:21;56.09;;;56.09;;
71174;SDS011;58876;51.994;4.472;2022-08-19T13:10:47;69.32;;;69.32;;
71174;SDS011;58876;51.994;4.472;2022-08-19T13:13:13;76.69;;;76.69;;
71174;SDS011;58876;51.994;4.472;2022-08-19T13:15:40;95.35;;;95.35;;
71174;SDS011;58876;51.994;4.472;2022-08-19T13:18:08;119.59;;;119.59;;
71174;SDS011;58876;51.994;4.472;2022-08-19T13:20:36;118.67;;;118.67;;
71174;SDS011;58876;51.994;4.472;2022-08-19T13:23:02;71.74;;;71.74;;
71174;SDS011;58876;51.994;4.472;2022-08-19T13:25:29;83.92;;;83.92;;
71174;SDS011;58876;51.994;4.472;2022-08-19T13:27:54;75.51;;;75.51;;
71174;SDS011;58876;51.994;4.472;2022-08-19T13:30:20;74.50;;;74.50;;
71174;SDS011;58876;51.994;4.472;2022-08-19T13:33:07;75.29;;;75.29;;
71174;SDS011;58876;51.994;4.472;2022-08-19T13:35:44;73.34;;;73.34;;
71174;SDS011;58876;51.994;4.472;2022-08-19T13:38:11;88.03;;;88.03;;
71174;SDS011;58876;51.994;4.472;2022-08-19T13:40:39;117.35;;;117.35;;
71174;SDS011;58876;51.994;4.472;2022-08-19T13:43:05;236.49;;;236.49;;
71174;SDS011;58876;51.994;4.472;2022-08-19T13:45:32;211.47;;;211.47;;
71174;SDS011;58876;51.994;4.472;2022-08-19T13:47:59;116.17;;;116.17;;
71174;SDS011;58876;51.994;4.472;2022-08-19T13:50:31;95.34;;;95.34;;
71174;SDS011;58876;51.994;4.472;2022-08-19T13:55:26;158.52;;;158.52;;
71174;SDS011;58876;51.994;4.472;2022-08-19T13:57:53;137.16;;;137.16;;
71174;SDS011;58876;51.994;4.472;2022-08-19T14:00:21;178.10;;;178.10;;
71174;SDS011;58876;51.994;4.472;2022-08-19T14:02:54;167.63;;;167.63;;
71174;SDS011;58876;51.994;4.472;2022-08-19T14:05:22;269.09;;;269.09;;
71174;SDS011;58876;51.994;4.472;2022-08-19T14:07:48;541.76;;;541.76;;
71174;SDS011;58876;51.994;4.472;2022-08-19T14:10:14;453.66;;;453.66;;
71174;SDS011;58876;51.994;4.472;2022-08-19T14:12:43;426.25;;;426.25;;
71174;SDS011;58876;51.994;4.472;2022-08-19T14:15:09;621.79;;;621.79;;
71174;SDS011;58876;51.994;4.472;2022-08-19T14:17:39;232.67;;;232.67;;
71174;SDS011;58876;51.994;4.472;2022-08-19T14:20:06;212.45;;;212.45;;
71174;SDS011;58876;51.994;4.472;2022-08-19T14:22:39;301.63;;;301.63;;